Faro Airport Faro PT
ICAO: LPFR
IATA: FAO
Category: Large
Scheduled Services: Yes

Elevation: 24 ft
TransAlt. 4000 ft.

Airport Communications:
APP:119.4
ATIS:124.2
GND:118.575
TWR:118.2

LPFR Zoom In..

If you have problems with the map follow the link
https://www.worldairports.se/pages/airport.php?
ICAO=LPFR

Runways:

(A) RW 10 length 8169 ft width 148 ft
---- / hdg 104

(B) RW 28 length 8169 ft width 148 ft
ILS 109.50 / hdg 284

Location; LPFR
Day. 21 / Time. 08.00 Zulu
* QNH: 1016
* Temperature: 20° c. 68°f.
* Wind from: 140° Speed 07 kn.
Dewpoint: 17° c.
Visibility: 10 km or more.
Clouds: Few 2000 ft.
Clouds: Few 2500 ft.

LPFR 210800Z 14007KT 9999 FEW020 FEW025CB 20/17 Q1016


Wind From 140°
Speed 07 kn.

 
 
jpsmedia.com for Web Design worldairports.se 2018   terms of use